sensor_id;sensor_type;location;lat;lon;timestamp;temperature;humidity
35559;DHT22;21661;50.794;-1.066;2023-12-20T00:02:18;7.70;99.90
35559;DHT22;21661;50.794;-1.066;2023-12-20T00:04:44;7.60;99.90
35559;DHT22;21661;50.794;-1.066;2023-12-20T00:07:10;7.60;99.90
35559;DHT22;21661;50.794;-1.066;2023-12-20T00:09:35;7.60;99.90
35559;DHT22;21661;50.794;-1.066;2023-12-20T00:12:01;7.50;99.90
35559;DHT22;21661;50.794;-1.066;2023-12-20T00:14:26;7.60;99.90
35559;DHT22;21661;50.794;-1.066;2023-12-20T00:16:52;7.60;99.90
35559;DHT22;21661;50.794;-1.066;2023-12-20T00:19:19;7.60;99.90
35559;DHT22;21661;50.794;-1.066;2023-12-20T00:21:44;7.50;99.90
35559;DHT22;21661;50.794;-1.066;2023-12-20T00:24:10;7.50;99.90
35559;DHT22;21661;50.794;-1.066;2023-12-20T00:26:35;7.50;99.90
35559;DHT22;21661;50.794;-1.066;2023-12-20T00:29:01;7.50;99.90
35559;DHT22;21661;50.794;-1.066;2023-12-20T00:31:27;7.50;99.90
35559;DHT22;21661;50.794;-1.066;2023-12-20T00:33:52;7.50;99.90
35559;DHT22;21661;50.794;-1.066;2023-12-20T00:36:18;7.50;99.90
35559;DHT22;21661;50.794;-1.066;2023-12-20T00:38:43;7.50;99.90
35559;DHT22;21661;50.794;-1.066;2023-12-20T00:41:18;7.50;99.90
35559;DHT22;21661;50.794;-1.066;2023-12-20T00:43:43;7.50;99.90
35559;DHT22;21661;50.794;-1.066;2023-12-20T00:46:09;7.50;99.90
35559;DHT22;21661;50.794;-1.066;2023-12-20T00:48:35;7.50;99.90
35559;DHT22;21661;50.794;-1.066;2023-12-20T00:51:01;7.50;99.90
35559;DHT22;21661;50.794;-1.066;2023-12-20T00:53:26;7.50;99.90
35559;DHT22;21661;50.794;-1.066;2023-12-20T00:55:52;7.50;99.90
35559;DHT22;21661;50.794;-1.066;2023-12-20T00:58:18;7.60;99.90
35559;DHT22;21661;50.794;-1.066;2023-12-20T01:00:43;7.50;99.90
35559;DHT22;21661;50.794;-1.066;2023-12-20T01:03:09;7.60;99.90
35559;DHT22;21661;50.794;-1.066;2023-12-20T01:05:35;7.50;99.90
35559;DHT22;21661;50.794;-1.066;2023-12-20T01:08:00;7.50;99.90
35559;DHT22;21661;50.794;-1.066;2023-12-20T01:10:28;7.50;99.90
35559;DHT22;21661;50.794;-1.066;2023-12-20T01:12:55;7.50;99.90
35559;DHT22;21661;50.794;-1.066;2023-12-20T01:15:20;7.50;99.90
35559;DHT22;21661;50.794;-1.066;2023-12-20T01:17:46;7.60;99.90
35559;DHT22;21661;50.794;-1.066;2023-12-20T01:20:12;7.50;99.90
35559;DHT22;21661;50.794;-1.066;2023-12-20T01:22:38;7.50;99.90
35559;DHT22;21661;50.794;-1.066;2023-12-20T01:25:03;7.50;99.90
35559;DHT22;21661;50.794;-1.066;2023-12-20T01:27:29;7.50;99.90
35559;DHT22;21661;50.794;-1.066;2023-12-20T01:29:56;7.60;99.90
35559;DHT22;21661;50.794;-1.066;2023-12-20T01:32:22;7.60;99.90
35559;DHT22;21661;50.794;-1.066;2023-12-20T01:34:48;7.60;99.90
35559;DHT22;21661;50.794;-1.066;2023-12-20T01:37:14;7.60;99.90
35559;DHT22;21661;50.794;-1.066;2023-12-20T01:39:39;7.60;99.90
35559;DHT22;21661;50.794;-1.066;2023-12-20T01:42:05;7.60;99.90
35559;DHT22;21661;50.794;-1.066;2023-12-20T01:44:31;7.60;99.90
35559;DHT22;21661;50.794;-1.066;2023-12-20T01:46:56;7.60;99.90
35559;DHT22;21661;50.794;-1.066;2023-12-20T01:49:23;7.60;99.90
35559;DHT22;21661;50.794;-1.066;2023-12-20T01:51:50;7.60;99.90
35559;DHT22;21661;50.794;-1.066;2023-12-20T01:54:16;7.60;99.90
35559;DHT22;21661;50.794;-1.066;2023-12-20T01:56:42;7.60;99.90
35559;DHT22;21661;50.794;-1.066;2023-12-20T01:59:09;7.60;99.90
35559;DHT22;21661;50.794;-1.066;2023-12-20T02:01:35;7.60;99.90
35559;DHT22;21661;50.794;-1.066;2023-12-20T02:04:01;7.60;99.90
35559;DHT22;21661;50.794;-1.066;2023-12-20T02:06:29;7.60;99.90
35559;DHT22;21661;50.794;-1.066;2023-12-20T02:08:57;7.60;99.90
35559;DHT22;21661;50.794;-1.066;2023-12-20T02:11:23;7.60;99.90
35559;DHT22;21661;50.794;-1.066;2023-12-20T02:13:50;7.60;99.90
35559;DHT22;21661;50.794;-1.066;2023-12-20T02:16:16;7.60;99.90
35559;DHT22;21661;50.794;-1.066;2023-12-20T02:18:43;7.60;99.90
35559;DHT22;21661;50.794;-1.066;2023-12-20T02:21:10;7.60;99.90
35559;DHT22;21661;50.794;-1.066;2023-12-20T02:23:35;7.60;99.90
35559;DHT22;21661;50.794;-1.066;2023-12-20T02:26:02;7.60;99.90
35559;DHT22;21661;50.794;-1.066;2023-12-20T02:28:28;7.70;99.90
35559;DHT22;21661;50.794;-1.066;2023-12-20T02:30:54;7.70;99.90
35559;DHT22;21661;50.794;-1.066;2023-12-20T02:33:20;7.60;99.90
35559;DHT22;21661;50.794;-1.066;2023-12-20T02:35:45;7.70;99.90
35559;DHT22;21661;50.794;-1.066;2023-12-20T02:38:11;7.60;99.90
35559;DHT22;21661;50.794;-1.066;2023-12-20T02:40:37;7.60;99.90
35559;DHT22;21661;50.794;-1.066;2023-12-20T02:43:02;7.60;99.90
35559;DHT22;21661;50.794;-1.066;2023-12-20T02:45:28;7.60;99.90
35559;DHT22;21661;50.794;-1.066;2023-12-20T02:47:54;7.60;99.90
35559;DHT22;21661;50.794;-1.066;2023-12-20T02:50:19;7.60;99.90
35559;DHT22;21661;50.794;-1.066;2023-12-20T02:52:45;7.60;99.90
35559;DHT22;21661;50.794;-1.066;2023-12-20T02:55:11;7.60;99.90
35559;DHT22;21661;50.794;-1.066;2023-12-20T02:57:37;7.70;99.90
35559;DHT22;21661;50.794;-1.066;2023-12-20T03:00:08;7.70;99.90
35559;DHT22;21661;50.794;-1.066;2023-12-20T03:02:34;7.70;99.90
35559;DHT22;21661;50.794;-1.066;2023-12-20T03:05:00;7.70;99.90
35559;DHT22;21661;50.794;-1.066;2023-12-20T03:07:26;7.70;99.90
35559;DHT22;21661;50.794;-1.066;2023-12-20T03:09:52;7.70;99.90
35559;DHT22;21661;50.794;-1.066;2023-12-20T03:12:17;7.70;99.90
35559;DHT22;21661;50.794;-1.066;2023-12-20T03:14:44;7.70;99.90
35559;DHT22;21661;50.794;-1.066;2023-12-20T03:17:10;7.70;99.90
35559;DHT22;21661;50.794;-1.066;2023-12-20T03:19:35;7.70;99.90
35559;DHT22;21661;50.794;-1.066;2023-12-20T03:22:01;7.70;99.90
35559;DHT22;21661;50.794;-1.066;2023-12-20T03:24:27;7.70;99.90
35559;DHT22;21661;50.794;-1.066;2023-12-20T03:26:53;7.70;99.90
35559;DHT22;21661;50.794;-1.066;2023-12-20T03:29:19;7.60;99.90
35559;DHT22;21661;50.794;-1.066;2023-12-20T03:31:44;7.60;99.90
35559;DHT22;21661;50.794;-1.066;2023-12-20T03:34:11;7.70;99.90
35559;DHT22;21661;50.794;-1.066;2023-12-20T03:36:37;7.70;99.90
35559;DHT22;21661;50.794;-1.066;2023-12-20T03:39:03;7.70;99.90
35559;DHT22;21661;50.794;-1.066;2023-12-20T03:41:28;7.70;99.90
35559;DHT22;21661;50.794;-1.066;2023-12-20T03:43:54;7.70;99.90
35559;DHT22;21661;50.794;-1.066;2023-12-20T03:46:20;7.70;99.90
35559;DHT22;21661;50.794;-1.066;2023-12-20T03:48:45;7.70;99.90
35559;DHT22;21661;50.794;-1.066;2023-12-20T03:51:11;7.60;99.90
35559;DHT22;21661;50.794;-1.066;2023-12-20T03:53:36;7.60;99.90
35559;DHT22;21661;50.794;-1.066;2023-12-20T03:56:02;7.60;99.90
35559;DHT22;21661;50.794;-1.066;2023-12-20T03:58:28;7.60;99.90
35559;DHT22;21661;50.794;-1.066;2023-12-20T04:00:54;7.60;99.90
35559;DHT22;21661;50.794;-1.066;2023-12-20T04:03:19;7.60;99.90
35559;DHT22;21661;50.794;-1.066;2023-12-20T04:05:45;7.60;99.90
35559;DHT22;21661;50.794;-1.066;2023-12-20T04:08:11;7.60;99.90
35559;DHT22;21661;50.794;-1.066;2023-12-20T04:10:37;7.60;99.90
35559;DHT22;21661;50.794;-1.066;2023-12-20T04:13:03;7.60;99.90
35559;DHT22;21661;50.794;-1.066;2023-12-20T04:15:29;7.70;99.90
35559;DHT22;21661;50.794;-1.066;2023-12-20T04:17:54;7.60;99.90
35559;DHT22;21661;50.794;-1.066;2023-12-20T04:20:21;7.70;99.90
35559;DHT22;21661;50.794;-1.066;2023-12-20T04:22:46;7.70;99.90
35559;DHT22;21661;50.794;-1.066;2023-12-20T04:25:12;7.70;99.90
35559;DHT22;21661;50.794;-1.066;2023-12-20T04:27:37;7.70;99.90
35559;DHT22;21661;50.794;-1.066;2023-12-20T04:30:03;7.70;99.90
35559;DHT22;21661;50.794;-1.066;2023-12-20T04:32:29;7.70;99.90
35559;DHT22;21661;50.794;-1.066;2023-12-20T04:34:55;7.80;99.90
35559;DHT22;21661;50.794;-1.066;2023-12-20T04:37:20;7.80;99.90
35559;DHT22;21661;50.794;-1.066;2023-12-20T04:39:46;7.80;99.90
35559;DHT22;21661;50.794;-1.066;2023-12-20T04:42:12;7.80;99.90
35559;DHT22;21661;50.794;-1.066;2023-12-20T04:44:37;7.80;99.90
35559;DHT22;21661;50.794;-1.066;2023-12-20T04:47:03;7.80;99.90
35559;DHT22;21661;50.794;-1.066;2023-12-20T04:49:29;7.80;99.90
35559;DHT22;21661;50.794;-1.066;2023-12-20T04:51:54;7.80;99.90
35559;DHT22;21661;50.794;-1.066;2023-12-20T04:54:21;7.80;99.90
35559;DHT22;21661;50.794;-1.066;2023-12-20T04:56:47;7.80;99.90
35559;DHT22;21661;50.794;-1.066;2023-12-20T04:59:13;7.80;99.90
35559;DHT22;21661;50.794;-1.066;2023-12-20T05:01:39;7.80;99.90
35559;DHT22;21661;50.794;-1.066;2023-12-20T05:04:04;7.80;99.90
35559;DHT22;21661;50.794;-1.066;2023-12-20T05:06:30;7.80;99.90
35559;DHT22;21661;50.794;-1.066;2023-12-20T05:08:56;7.80;99.90
35559;DHT22;21661;50.794;-1.066;2023-12-20T05:11:21;7.80;99.90
35559;DHT22;21661;50.794;-1.066;2023-12-20T05:13:47;7.80;99.90
35559;DHT22;21661;50.794;-1.066;2023-12-20T05:16:13;7.80;99.90
35559;DHT22;21661;50.794;-1.066;2023-12-20T05:18:40;7.80;99.90
35559;DHT22;21661;50.794;-1.066;2023-12-20T05:21:05;7.80;99.90
35559;DHT22;21661;50.794;-1.066;2023-12-20T05:23:31;7.80;99.90
35559;DHT22;21661;50.794;-1.066;2023-12-20T05:25:56;7.80;99.90
35559;DHT22;21661;50.794;-1.066;2023-12-20T05:28:22;7.80;99.90
35559;DHT22;21661;50.794;-1.066;2023-12-20T05:30:48;7.80;99.90
35559;DHT22;21661;50.794;-1.066;2023-12-20T05:33:14;7.80;99.90
35559;DHT22;21661;50.794;-1.066;2023-12-20T05:35:39;7.90;99.90
35559;DHT22;21661;50.794;-1.066;2023-12-20T05:38:05;7.90;99.90
35559;DHT22;21661;50.794;-1.066;2023-12-20T05:40:30;7.80;99.90
35559;DHT22;21661;50.794;-1.066;2023-12-20T05:42:56;7.90;99.90
35559;DHT22;21661;50.794;-1.066;2023-12-20T05:45:22;7.90;99.90
35559;DHT22;21661;50.794;-1.066;2023-12-20T05:47:47;7.90;99.90
35559;DHT22;21661;50.794;-1.066;2023-12-20T05:50:13;7.90;99.90
35559;DHT22;21661;50.794;-1.066;2023-12-20T05:52:38;7.90;99.90
35559;DHT22;21661;50.794;-1.066;2023-12-20T05:55:04;8.00;99.90
35559;DHT22;21661;50.794;-1.066;2023-12-20T05:57:30;8.00;99.90
35559;DHT22;21661;50.794;-1.066;2023-12-20T05:59:55;8.00;99.90
35559;DHT22;21661;50.794;-1.066;2023-12-20T06:02:21;8.10;99.90
35559;DHT22;21661;50.794;-1.066;2023-12-20T06:04:46;8.10;99.90
35559;DHT22;21661;50.794;-1.066;2023-12-20T06:07:13;8.20;99.90
35559;DHT22;21661;50.794;-1.066;2023-12-20T06:09:39;8.20;99.90
35559;DHT22;21661;50.794;-1.066;2023-12-20T06:12:05;8.20;99.90
35559;DHT22;21661;50.794;-1.066;2023-12-20T06:14:30;8.30;99.90
35559;DHT22;21661;50.794;-1.066;2023-12-20T06:16:57;8.40;99.90
35559;DHT22;21661;50.794;-1.066;2023-12-20T06:19:23;8.30;99.90
35559;DHT22;21661;50.794;-1.066;2023-12-20T06:21:48;8.30;99.90
35559;DHT22;21661;50.794;-1.066;2023-12-20T06:24:14;8.40;99.90
35559;DHT22;21661;50.794;-1.066;2023-12-20T06:26:40;8.40;99.90
35559;DHT22;21661;50.794;-1.066;2023-12-20T06:29:05;8.40;99.90
35559;DHT22;21661;50.794;-1.066;2023-12-20T06:31:31;8.40;99.90
35559;DHT22;21661;50.794;-1.066;2023-12-20T06:33:58;8.40;99.90
35559;DHT22;21661;50.794;-1.066;2023-12-20T06:36:28;8.40;99.90
35559;DHT22;21661;50.794;-1.066;2023-12-20T06:38:54;8.50;99.90
35559;DHT22;21661;50.794;-1.066;2023-12-20T06:41:19;8.50;99.90
35559;DHT22;21661;50.794;-1.066;2023-12-20T06:43:45;8.50;99.90
35559;DHT22;21661;50.794;-1.066;2023-12-20T06:46:11;8.50;99.90
35559;DHT22;21661;50.794;-1.066;2023-12-20T06:48:38;8.50;99.90
35559;DHT22;21661;50.794;-1.066;2023-12-20T06:51:05;8.60;99.90
35559;DHT22;21661;50.794;-1.066;2023-12-20T06:53:30;8.60;99.90
35559;DHT22;21661;50.794;-1.066;2023-12-20T06:55:56;8.60;99.90
35559;DHT22;21661;50.794;-1.066;2023-12-20T06:58:22;8.60;99.90
35559;DHT22;21661;50.794;-1.066;2023-12-20T07:00:48;8.70;99.90
35559;DHT22;21661;50.794;-1.066;2023-12-20T07:03:13;8.70;99.90
35559;DHT22;21661;50.794;-1.066;2023-12-20T07:05:39;8.70;99.90
35559;DHT22;21661;50.794;-1.066;2023-12-20T07:08:06;8.80;99.90
35559;DHT22;21661;50.794;-1.066;2023-12-20T07:10:32;8.80;99.90
35559;DHT22;21661;50.794;-1.066;2023-12-20T07:12:57;8.80;99.90
35559;DHT22;21661;50.794;-1.066;2023-12-20T07:15:23;8.80;99.90
35559;DHT22;21661;50.794;-1.066;2023-12-20T07:17:49;8.80;99.90
35559;DHT22;21661;50.794;-1.066;2023-12-20T07:20:15;8.80;99.90
35559;DHT22;21661;50.794;-1.066;2023-12-20T07:22:40;8.80;99.90
35559;DHT22;21661;50.794;-1.066;2023-12-20T07:25:06;8.80;99.90
35559;DHT22;21661;50.794;-1.066;2023-12-20T07:27:32;8.80;99.90
35559;DHT22;21661;50.794;-1.066;2023-12-20T07:29:58;8.80;99.90
35559;DHT22;21661;50.794;-1.066;2023-12-20T07:32:23;8.80;99.90
35559;DHT22;21661;50.794;-1.066;2023-12-20T07:34:49;8.80;99.90
35559;DHT22;21661;50.794;-1.066;2023-12-20T07:37:15;8.80;99.90
35559;DHT22;21661;50.794;-1.066;2023-12-20T07:39:41;8.80;99.90
35559;DHT22;21661;50.794;-1.066;2023-12-20T07:42:07;8.80;99.90
35559;DHT22;21661;50.794;-1.066;2023-12-20T07:44:33;8.80;99.90
35559;DHT22;21661;50.794;-1.066;2023-12-20T07:46:59;8.80;99.90
35559;DHT22;21661;50.794;-1.066;2023-12-20T07:49:26;8.80;99.90
35559;DHT22;21661;50.794;-1.066;2023-12-20T07:51:52;8.80;99.90
35559;DHT22;21661;50.794;-1.066;2023-12-20T07:54:17;8.80;99.90
35559;DHT22;21661;50.794;-1.066;2023-12-20T07:56:43;8.90;99.90
35559;DHT22;21661;50.794;-1.066;2023-12-20T07:59:09;8.90;99.90
35559;DHT22;21661;50.794;-1.066;2023-12-20T08:01:35;8.90;99.90
35559;DHT22;21661;50.794;-1.066;2023-12-20T08:04:00;9.00;99.90
35559;DHT22;21661;50.794;-1.066;2023-12-20T08:06:26;9.00;99.90
35559;DHT22;21661;50.794;-1.066;2023-12-20T08:08:51;9.00;99.90
35559;DHT22;21661;50.794;-1.066;2023-12-20T08:11:17;9.00;99.90
35559;DHT22;21661;50.794;-1.066;2023-12-20T08:13:43;9.10;99.90
35559;DHT22;21661;50.794;-1.066;2023-12-20T08:16:08;9.10;99.90
35559;DHT22;21661;50.794;-1.066;2023-12-20T08:18:34;9.10;99.90
35559;DHT22;21661;50.794;-1.066;2023-12-20T08:21:00;9.10;99.90
35559;DHT22;21661;50.794;-1.066;2023-12-20T08:23:27;9.20;99.90
35559;DHT22;21661;50.794;-1.066;2023-12-20T08:25:52;9.20;99.90
35559;DHT22;21661;50.794;-1.066;2023-12-20T08:28:18;9.20;99.90
35559;DHT22;21661;50.794;-1.066;2023-12-20T08:30:43;9.20;99.90
35559;DHT22;21661;50.794;-1.066;2023-12-20T08:33:09;9.20;99.90
35559;DHT22;21661;50.794;-1.066;2023-12-20T08:35:38;9.30;99.90
35559;DHT22;21661;50.794;-1.066;2023-12-20T08:38:05;9.30;99.90
35559;DHT22;21661;50.794;-1.066;2023-12-20T08:40:30;9.30;99.90
35559;DHT22;21661;50.794;-1.066;2023-12-20T08:42:56;9.30;99.90
35559;DHT22;21661;50.794;-1.066;2023-12-20T08:45:22;9.30;99.90
35559;DHT22;21661;50.794;-1.066;2023-12-20T08:47:47;9.30;99.90
35559;DHT22;21661;50.794;-1.066;2023-12-20T08:50:13;9.40;99.90
35559;DHT22;21661;50.794;-1.066;2023-12-20T08:52:38;9.40;99.90
35559;DHT22;21661;50.794;-1.066;2023-12-20T08:55:05;9.40;99.90
35559;DHT22;21661;50.794;-1.066;2023-12-20T08:57:30;9.40;99.90
35559;DHT22;21661;50.794;-1.066;2023-12-20T08:59:57;9.50;99.90
35559;DHT22;21661;50.794;-1.066;2023-12-20T09:02:23;9.50;99.90
35559;DHT22;21661;50.794;-1.066;2023-12-20T09:04:48;9.50;99.90
35559;DHT22;21661;50.794;-1.066;2023-12-20T09:07:22;9.50;99.90
35559;DHT22;21661;50.794;-1.066;2023-12-20T09:09:48;9.50;99.90
35559;DHT22;21661;50.794;-1.066;2023-12-20T09:12:13;9.60;99.90
35559;DHT22;21661;50.794;-1.066;2023-12-20T09:14:39;9.60;99.90
35559;DHT22;21661;50.794;-1.066;2023-12-20T09:17:05;9.60;99.90
35559;DHT22;21661;50.794;-1.066;2023-12-20T09:19:31;9.60;99.90
35559;DHT22;21661;50.794;-1.066;2023-12-20T09:21:57;9.50;99.90
35559;DHT22;21661;50.794;-1.066;2023-12-20T09:24:23;9.50;99.90
35559;DHT22;21661;50.794;-1.066;2023-12-20T09:26:48;9.50;99.90
35559;DHT22;21661;50.794;-1.066;2023-12-20T09:29:14;9.50;99.90
35559;DHT22;21661;50.794;-1.066;2023-12-20T09:31:41;9.50;99.90
35559;DHT22;21661;50.794;-1.066;2023-12-20T09:34:09;9.50;99.90
35559;DHT22;21661;50.794;-1.066;2023-12-20T09:36:34;9.60;99.90
35559;DHT22;21661;50.794;-1.066;2023-12-20T09:39:01;9.60;99.90
35559;DHT22;21661;50.794;-1.066;2023-12-20T09:41:31;9.60;99.90
35559;DHT22;21661;50.794;-1.066;2023-12-20T09:43:59;9.60;99.90
35559;DHT22;21661;50.794;-1.066;2023-12-20T09:46:28;9.70;99.90
35559;DHT22;21661;50.794;-1.066;2023-12-20T09:48:59;9.70;99.90
35559;DHT22;21661;50.794;-1.066;2023-12-20T09:51:27;9.70;99.90
35559;DHT22;21661;50.794;-1.066;2023-12-20T09:53:54;9.80;99.90
35559;DHT22;21661;50.794;-1.066;2023-12-20T09:56:22;9.80;99.90
35559;DHT22;21661;50.794;-1.066;2023-12-20T09:58:48;9.90;99.90
35559;DHT22;21661;50.794;-1.066;2023-12-20T10:01:15;9.90;99.90
35559;DHT22;21661;50.794;-1.066;2023-12-20T10:03:41;10.00;99.90
35559;DHT22;21661;50.794;-1.066;2023-12-20T10:06:07;10.00;99.90
35559;DHT22;21661;50.794;-1.066;2023-12-20T10:08:34;10.10;99.90
35559;DHT22;21661;50.794;-1.066;2023-12-20T10:11:00;10.10;99.90
35559;DHT22;21661;50.794;-1.066;2023-12-20T10:13:28;10.10;99.90
35559;DHT22;21661;50.794;-1.066;2023-12-20T10:15:55;10.10;99.90
35559;DHT22;21661;50.794;-1.066;2023-12-20T10:18:21;10.10;99.90
35559;DHT22;21661;50.794;-1.066;2023-12-20T10:20:47;10.20;99.90
35559;DHT22;21661;50.794;-1.066;2023-12-20T10:23:13;10.20;99.90
35559;DHT22;21661;50.794;-1.066;2023-12-20T10:25:39;10.20;99.90
35559;DHT22;21661;50.794;-1.066;2023-12-20T10:28:14;10.30;99.90
35559;DHT22;21661;50.794;-1.066;2023-12-20T10:30:44;10.20;99.90
35559;DHT22;21661;50.794;-1.066;2023-12-20T10:33:10;10.30;99.90
35559;DHT22;21661;50.794;-1.066;2023-12-20T10:35:37;10.20;99.90
35559;DHT22;21661;50.794;-1.066;2023-12-20T10:38:06;10.20;99.90
35559;DHT22;21661;50.794;-1.066;2023-12-20T10:40:35;10.20;99.90
35559;DHT22;21661;50.794;-1.066;2023-12-20T10:43:04;10.10;99.90
35559;DHT22;21661;50.794;-1.066;2023-12-20T10:45:30;10.10;99.90
35559;DHT22;21661;50.794;-1.066;2023-12-20T10:47:58;10.10;99.90
35559;DHT22;21661;50.794;-1.066;2023-12-20T10:50:27;10.10;99.90
35559;DHT22;21661;50.794;-1.066;2023-12-20T10:52:55;10.10;99.90
35559;DHT22;21661;50.794;-1.066;2023-12-20T10:55:24;10.20;99.90
35559;DHT22;21661;50.794;-1.066;2023-12-20T10:58:01;10.20;99.90
35559;DHT22;21661;50.794;-1.066;2023-12-20T11:00:29;10.20;99.90
35559;DHT22;21661;50.794;-1.066;2023-12-20T11:03:01;10.20;99.90
35559;DHT22;21661;50.794;-1.066;2023-12-20T11:08:35;10.10;99.90
35559;DHT22;21661;50.794;-1.066;2023-12-20T11:11:14;10.00;99.90
35559;DHT22;21661;50.794;-1.066;2023-12-20T11:13:55;10.00;99.90
35559;DHT22;21661;50.794;-1.066;2023-12-20T11:16:23;10.00;99.90
35559;DHT22;21661;50.794;-1.066;2023-12-20T11:18:50;10.10;99.90
35559;DHT22;21661;50.794;-1.066;2023-12-20T11:21:16;10.10;99.90
35559;DHT22;21661;50.794;-1.066;2023-12-20T11:23:42;10.10;99.90
35559;DHT22;21661;50.794;-1.066;2023-12-20T11:26:08;10.10;99.90
35559;DHT22;21661;50.794;-1.066;2023-12-20T11:28:34;10.20;99.90
35559;DHT22;21661;50.794;-1.066;2023-12-20T11:31:01;10.20;99.90
35559;DHT22;21661;50.794;-1.066;2023-12-20T11:33:31;10.20;99.90
35559;DHT22;21661;50.794;-1.066;2023-12-20T11:35:57;10.30;99.90
35559;DHT22;21661;50.794;-1.066;2023-12-20T11:38:24;10.30;99.90
35559;DHT22;21661;50.794;-1.066;2023-12-20T11:40:51;10.40;99.90
35559;DHT22;21661;50.794;-1.066;2023-12-20T11:43:32;10.40;99.90
35559;DHT22;21661;50.794;-1.066;2023-12-20T11:46:04;10.40;99.90
35559;DHT22;21661;50.794;-1.066;2023-12-20T11:48:32;10.40;99.90
35559;DHT22;21661;50.794;-1.066;2023-12-20T11:51:00;10.40;99.90
35559;DHT22;21661;50.794;-1.066;2023-12-20T11:53:25;10.40;99.90
35559;DHT22;21661;50.794;-1.066;2023-12-20T11:55:51;10.40;99.90
35559;DHT22;21661;50.794;-1.066;2023-12-20T11:58:17;10.40;99.90
35559;DHT22;21661;50.794;-1.066;2023-12-20T12:00:43;10.50;99.90
35559;DHT22;21661;50.794;-1.066;2023-12-20T12:03:09;10.50;99.90
35559;DHT22;21661;50.794;-1.066;2023-12-20T12:05:35;10.50;99.90
35559;DHT22;21661;50.794;-1.066;2023-12-20T12:08:04;10.60;99.90
35559;DHT22;21661;50.794;-1.066;2023-12-20T12:10:30;10.60;99.90
35559;DHT22;21661;50.794;-1.066;2023-12-20T12:12:56;10.60;99.90
35559;DHT22;21661;50.794;-1.066;2023-12-20T12:15:22;10.60;99.90
35559;DHT22;21661;50.794;-1.066;2023-12-20T12:17:57;10.70;99.90
35559;DHT22;21661;50.794;-1.066;2023-12-20T12:20:23;10.60;99.90
35559;DHT22;21661;50.794;-1.066;2023-12-20T12:23:04;10.60;99.90
35559;DHT22;21661;50.794;-1.066;2023-12-20T12:25:31;10.70;99.90
35559;DHT22;21661;50.794;-1.066;2023-12-20T12:27:58;10.60;99.90
35559;DHT22;21661;50.794;-1.066;2023-12-20T12:30:24;10.70;99.90
35559;DHT22;21661;50.794;-1.066;2023-12-20T12:32:51;10.70;99.90
35559;DHT22;21661;50.794;-1.066;2023-12-20T12:35:18;10.70;99.90
35559;DHT22;21661;50.794;-1.066;2023-12-20T12:37:44;10.70;99.90
35559;DHT22;21661;50.794;-1.066;2023-12-20T12:40:11;10.70;99.90
35559;DHT22;21661;50.794;-1.066;2023-12-20T12:42:37;10.70;99.90
35559;DHT22;21661;50.794;-1.066;2023-12-20T12:45:04;10.60;99.90
35559;DHT22;21661;50.794;-1.066;2023-12-20T12:47:30;10.60;99.90
35559;DHT22;21661;50.794;-1.066;2023-12-20T12:49:56;10.70;99.90
35559;DHT22;21661;50.794;-1.066;2023-12-20T12:52:22;10.60;99.90
35559;DHT22;21661;50.794;-1.066;2023-12-20T12:54:48;10.70;99.90
35559;DHT22;21661;50.794;-1.066;2023-12-20T12:57:14;10.70;99.90
35559;DHT22;21661;50.794;-1.066;2023-12-20T12:59:41;10.70;99.90
35559;DHT22;21661;50.794;-1.066;2023-12-20T13:02:07;10.80;99.90
35559;DHT22;21661;50.794;-1.066;2023-12-20T13:04:33;10.90;99.90
35559;DHT22;21661;50.794;-1.066;2023-12-20T13:06:59;10.80;99.90
35559;DHT22;21661;50.794;-1.066;2023-12-20T13:09:25;10.90;99.90
35559;DHT22;21661;50.794;-1.066;2023-12-20T13:11:50;10.90;99.90
35559;DHT22;21661;50.794;-1.066;2023-12-20T13:14:16;10.90;99.90
35559;DHT22;21661;50.794;-1.066;2023-12-20T13:16:42;10.90;99.90
35559;DHT22;21661;50.794;-1.066;2023-12-20T13:19:08;10.80;99.90
35559;DHT22;21661;50.794;-1.066;2023-12-20T13:21:35;10.90;99.90
35559;DHT22;21661;50.794;-1.066;2023-12-20T13:24:01;10.80;99.90
35559;DHT22;21661;50.794;-1.066;2023-12-20T13:26:26;10.80;99.90
35559;DHT22;21661;50.794;-1.066;2023-12-20T13:28:53;10.80;99.90
35559;DHT22;21661;50.794;-1.066;2023-12-20T13:31:20;10.80;99.90
35559;DHT22;21661;50.794;-1.066;2023-12-20T13:33:45;10.80;99.90
35559;DHT22;21661;50.794;-1.066;2023-12-20T13:36:11;10.90;99.90
35559;DHT22;21661;50.794;-1.066;2023-12-20T13:38:37;10.90;99.90
35559;DHT22;21661;50.794;-1.066;2023-12-20T13:41:03;10.90;99.90
35559;DHT22;21661;50.794;-1.066;2023-12-20T13:43:30;10.80;99.90
35559;DHT22;21661;50.794;-1.066;2023-12-20T13:45:57;10.80;99.90
35559;DHT22;21661;50.794;-1.066;2023-12-20T13:48:24;10.80;99.90
35559;DHT22;21661;50.794;-1.066;2023-12-20T13:50:49;10.80;99.90
35559;DHT22;21661;50.794;-1.066;2023-12-20T13:53:15;10.80;99.90
35559;DHT22;21661;50.794;-1.066;2023-12-20T13:55:41;10.80;99.90
35559;DHT22;21661;50.794;-1.066;2023-12-20T13:58:06;10.80;99.90
35559;DHT22;21661;50.794;-1.066;2023-12-20T14:00:32;10.80;99.90
35559;DHT22;21661;50.794;-1.066;2023-12-20T14:02:57;10.80;99.90
35559;DHT22;21661;50.794;-1.066;2023-12-20T14:05:24;10.80;99.90
35559;DHT22;21661;50.794;-1.066;2023-12-20T14:07:49;10.80;99.90
35559;DHT22;21661;50.794;-1.066;2023-12-20T14:10:16;10.90;99.90
35559;DHT22;21661;50.794;-1.066;2023-12-20T14:12:42;10.80;99.90
35559;DHT22;21661;50.794;-1.066;2023-12-20T14:15:08;10.90;99.90
35559;DHT22;21661;50.794;-1.066;2023-12-20T14:17:39;10.90;99.90
35559;DHT22;21661;50.794;-1.066;2023-12-20T14:20:06;10.90;99.90
35559;DHT22;21661;50.794;-1.066;2023-12-20T14:22:35;10.90;99.90
35559;DHT22;21661;50.794;-1.066;2023-12-20T14:25:02;10.80;99.90
35559;DHT22;21661;50.794;-1.066;2023-12-20T14:27:28;10.80;99.90
35559;DHT22;21661;50.794;-1.066;2023-12-20T14:29:54;10.90;99.90
35559;DHT22;21661;50.794;-1.066;2023-12-20T14:32:20;10.90;99.90
35559;DHT22;21661;50.794;-1.066;2023-12-20T14:34:46;10.90;99.90
35559;DHT22;21661;50.794;-1.066;2023-12-20T14:37:12;10.90;99.90
35559;DHT22;21661;50.794;-1.066;2023-12-20T14:39:37;10.90;99.90
35559;DHT22;21661;50.794;-1.066;2023-12-20T14:42:10;10.90;99.90
35559;DHT22;21661;50.794;-1.066;2023-12-20T14:44:42;10.90;99.90
35559;DHT22;21661;50.794;-1.066;2023-12-20T14:47:08;10.90;99.90
35559;DHT22;21661;50.794;-1.066;2023-12-20T14:49:34;11.00;99.90
35559;DHT22;21661;50.794;-1.066;2023-12-20T14:51:59;11.00;99.90
35559;DHT22;21661;50.794;-1.066;2023-12-20T14:54:25;11.00;99.90
35559;DHT22;21661;50.794;-1.066;2023-12-20T14:56:51;11.00;99.90
35559;DHT22;21661;50.794;-1.066;2023-12-20T14:59:17;11.00;99.90
35559;DHT22;21661;50.794;-1.066;2023-12-20T15:01:43;11.00;99.90
35559;DHT22;21661;50.794;-1.066;2023-12-20T15:04:09;11.00;99.90
35559;DHT22;21661;50.794;-1.066;2023-12-20T15:06:36;11.00;99.90
35559;DHT22;21661;50.794;-1.066;2023-12-20T15:09:02;11.10;99.90
35559;DHT22;21661;50.794;-1.066;2023-12-20T15:11:33;11.00;99.90
35559;DHT22;21661;50.794;-1.066;2023-12-20T15:13:59;11.00;99.90
35559;DHT22;21661;50.794;-1.066;2023-12-20T15:16:26;11.00;99.90
35559;DHT22;21661;50.794;-1.066;2023-12-20T15:18:52;11.00;99.90
35559;DHT22;21661;50.794;-1.066;2023-12-20T15:21:21;11.00;99.90
35559;DHT22;21661;50.794;-1.066;2023-12-20T15:23:55;11.00;99.90